Inguadona, Minnesota
Current Conditions -  °F | °C
As of 6:16 AM on Sunday 25 Jan 2015 (Local Time) from KXVG Reporting Station
Overcast Overcast  
Wind Chill: 21°   Ceiling: 2600
Heat Index: 21°   Visibility: 10mi
Dew Point: 16°   Wind: 0mph
Humidity: 80%   Direction: NA
Pressure: 29.93"   Gusts: NA
Location:  47.0632°N, 94.1534°W
Report Text: KXVG 251216Z AUTO 00000KT 10SM SCT018 OVC026 M06/M09 A2993 RMK AO2
Loading
Personal Weather Stations






























Interactive Weather Map New forecast layout! Learn more

10-Day Weather Forecast

Advertisements
Track Severe Weather on mobile